sensor_id;sensor_type;location;lat;lon;timestamp;temperature;humidity
8792;DHT22;4432;50.890;4.744;2023-07-02T00:01:43;16.60;99.90
8792;DHT22;4432;50.890;4.744;2023-07-02T00:04:08;16.50;99.90
8792;DHT22;4432;50.890;4.744;2023-07-02T00:06:35;16.50;99.90
8792;DHT22;4432;50.890;4.744;2023-07-02T00:09:09;16.50;99.90
8792;DHT22;4432;50.890;4.744;2023-07-02T00:11:38;16.50;99.90
8792;DHT22;4432;50.890;4.744;2023-07-02T00:14:05;16.40;99.90
8792;DHT22;4432;50.890;4.744;2023-07-02T00:16:31;16.40;99.90
8792;DHT22;4432;50.890;4.744;2023-07-02T00:18:57;16.30;99.90
8792;DHT22;4432;50.890;4.744;2023-07-02T00:21:22;16.30;99.90
8792;DHT22;4432;50.890;4.744;2023-07-02T00:23:54;16.30;99.90
8792;DHT22;4432;50.890;4.744;2023-07-02T00:26:26;16.30;99.90
8792;DHT22;4432;50.890;4.744;2023-07-02T00:28:53;16.30;99.90
8792;DHT22;4432;50.890;4.744;2023-07-02T00:31:19;16.30;99.90
8792;DHT22;4432;50.890;4.744;2023-07-02T00:33:45;16.30;99.90
8792;DHT22;4432;50.890;4.744;2023-07-02T00:36:12;16.30;99.90
8792;DHT22;4432;50.890;4.744;2023-07-02T00:38:45;16.30;99.90
8792;DHT22;4432;50.890;4.744;2023-07-02T00:41:11;16.30;99.90
8792;DHT22;4432;50.890;4.744;2023-07-02T00:43:37;16.30;99.90
8792;DHT22;4432;50.890;4.744;2023-07-02T00:46:13;16.30;99.90
8792;DHT22;4432;50.890;4.744;2023-07-02T00:48:44;16.30;99.90
8792;DHT22;4432;50.890;4.744;2023-07-02T00:51:15;16.30;99.90
8792;DHT22;4432;50.890;4.744;2023-07-02T00:53:42;16.30;99.90
8792;DHT22;4432;50.890;4.744;2023-07-02T00:56:09;16.20;99.90
8792;DHT22;4432;50.890;4.744;2023-07-02T00:58:38;16.20;99.90
8792;DHT22;4432;50.890;4.744;2023-07-02T01:01:04;16.20;99.90
8792;DHT22;4432;50.890;4.744;2023-07-02T01:03:30;16.20;99.90
8792;DHT22;4432;50.890;4.744;2023-07-02T01:05:58;16.20;99.90
8792;DHT22;4432;50.890;4.744;2023-07-02T01:08:24;16.20;99.90
8792;DHT22;4432;50.890;4.744;2023-07-02T01:10:50;16.20;99.90
8792;DHT22;4432;50.890;4.744;2023-07-02T01:13:19;16.20;99.90
8792;DHT22;4432;50.890;4.744;2023-07-02T01:15:46;16.20;99.90
8792;DHT22;4432;50.890;4.744;2023-07-02T01:18:13;16.20;99.90
8792;DHT22;4432;50.890;4.744;2023-07-02T01:20:41;16.20;99.90
8792;DHT22;4432;50.890;4.744;2023-07-02T01:23:07;16.20;99.90
8792;DHT22;4432;50.890;4.744;2023-07-02T01:25:34;16.30;99.90
8792;DHT22;4432;50.890;4.744;2023-07-02T01:28:02;16.20;99.90
8792;DHT22;4432;50.890;4.744;2023-07-02T01:30:28;16.20;99.90
8792;DHT22;4432;50.890;4.744;2023-07-02T01:32:54;16.30;99.90
8792;DHT22;4432;50.890;4.744;2023-07-02T01:35:20;16.30;99.90
8792;DHT22;4432;50.890;4.744;2023-07-02T01:37:45;16.30;99.90
8792;DHT22;4432;50.890;4.744;2023-07-02T01:40:11;16.30;99.90
8792;DHT22;4432;50.890;4.744;2023-07-02T01:42:37;16.30;99.90
8792;DHT22;4432;50.890;4.744;2023-07-02T01:45:04;16.30;99.90
8792;DHT22;4432;50.890;4.744;2023-07-02T01:47:30;16.40;99.90
8792;DHT22;4432;50.890;4.744;2023-07-02T01:49:56;16.30;99.90
8792;DHT22;4432;50.890;4.744;2023-07-02T01:52:21;16.40;99.90
8792;DHT22;4432;50.890;4.744;2023-07-02T01:54:47;16.40;99.90
8792;DHT22;4432;50.890;4.744;2023-07-02T01:57:13;16.40;99.90
8792;DHT22;4432;50.890;4.744;2023-07-02T01:59:39;16.40;99.90
8792;DHT22;4432;50.890;4.744;2023-07-02T02:02:04;16.40;99.90
8792;DHT22;4432;50.890;4.744;2023-07-02T02:04:30;16.40;99.90
8792;DHT22;4432;50.890;4.744;2023-07-02T02:06:56;16.40;99.90
8792;DHT22;4432;50.890;4.744;2023-07-02T02:09:21;16.40;99.90
8792;DHT22;4432;50.890;4.744;2023-07-02T02:11:51;16.40;99.90
8792;DHT22;4432;50.890;4.744;2023-07-02T02:14:18;16.40;99.90
8792;DHT22;4432;50.890;4.744;2023-07-02T02:16:44;16.30;99.90
8792;DHT22;4432;50.890;4.744;2023-07-02T02:19:13;16.30;99.90
8792;DHT22;4432;50.890;4.744;2023-07-02T02:21:40;16.30;99.90
8792;DHT22;4432;50.890;4.744;2023-07-02T02:24:06;16.20;99.90
8792;DHT22;4432;50.890;4.744;2023-07-02T02:26:33;16.20;99.90
8792;DHT22;4432;50.890;4.744;2023-07-02T02:28:59;16.20;99.90
8792;DHT22;4432;50.890;4.744;2023-07-02T02:31:25;16.20;99.90
8792;DHT22;4432;50.890;4.744;2023-07-02T02:33:51;16.10;99.90
8792;DHT22;4432;50.890;4.744;2023-07-02T02:36:16;16.10;99.90
8792;DHT22;4432;50.890;4.744;2023-07-02T02:38:43;16.10;99.90
8792;DHT22;4432;50.890;4.744;2023-07-02T02:41:08;16.10;99.90
8792;DHT22;4432;50.890;4.744;2023-07-02T02:43:34;16.10;99.90
8792;DHT22;4432;50.890;4.744;2023-07-02T02:46:00;16.10;99.90
8792;DHT22;4432;50.890;4.744;2023-07-02T02:48:26;16.00;99.90
8792;DHT22;4432;50.890;4.744;2023-07-02T02:50:51;16.00;99.90
8792;DHT22;4432;50.890;4.744;2023-07-02T02:53:17;16.00;99.90
8792;DHT22;4432;50.890;4.744;2023-07-02T02:55:43;16.00;99.90
8792;DHT22;4432;50.890;4.744;2023-07-02T02:58:09;16.00;99.90
8792;DHT22;4432;50.890;4.744;2023-07-02T03:00:34;16.00;99.90
8792;DHT22;4432;50.890;4.744;2023-07-02T03:03:00;15.90;99.90
8792;DHT22;4432;50.890;4.744;2023-07-02T03:05:26;15.90;99.90
8792;DHT22;4432;50.890;4.744;2023-07-02T03:07:52;15.90;99.90
8792;DHT22;4432;50.890;4.744;2023-07-02T03:10:18;15.80;99.90
8792;DHT22;4432;50.890;4.744;2023-07-02T03:12:44;15.80;99.90
8792;DHT22;4432;50.890;4.744;2023-07-02T03:15:09;15.80;99.90
8792;DHT22;4432;50.890;4.744;2023-07-02T03:17:36;15.70;99.90
8792;DHT22;4432;50.890;4.744;2023-07-02T03:20:02;15.70;99.90
8792;DHT22;4432;50.890;4.744;2023-07-02T03:22:30;15.70;99.90
8792;DHT22;4432;50.890;4.744;2023-07-02T03:24:55;15.70;99.90
8792;DHT22;4432;50.890;4.744;2023-07-02T03:27:21;15.70;99.90
8792;DHT22;4432;50.890;4.744;2023-07-02T03:29:47;15.70;99.90
8792;DHT22;4432;50.890;4.744;2023-07-02T03:32:12;15.70;99.90
8792;DHT22;4432;50.890;4.744;2023-07-02T03:34:38;15.60;99.90
8792;DHT22;4432;50.890;4.744;2023-07-02T03:37:04;15.50;99.90
8792;DHT22;4432;50.890;4.744;2023-07-02T03:39:30;15.50;99.90
8792;DHT22;4432;50.890;4.744;2023-07-02T03:41:56;15.40;99.90
8792;DHT22;4432;50.890;4.744;2023-07-02T03:44:21;15.30;99.90
8792;DHT22;4432;50.890;4.744;2023-07-02T03:46:47;15.20;99.90
8792;DHT22;4432;50.890;4.744;2023-07-02T03:49:13;15.20;99.90
8792;DHT22;4432;50.890;4.744;2023-07-02T03:51:38;15.30;99.90
8792;DHT22;4432;50.890;4.744;2023-07-02T03:54:04;15.30;99.90
8792;DHT22;4432;50.890;4.744;2023-07-02T03:56:30;15.30;99.90
8792;DHT22;4432;50.890;4.744;2023-07-02T03:58:56;15.30;99.90
8792;DHT22;4432;50.890;4.744;2023-07-02T04:01:21;15.30;99.90
8792;DHT22;4432;50.890;4.744;2023-07-02T04:03:49;15.30;99.90
8792;DHT22;4432;50.890;4.744;2023-07-02T04:06:15;15.30;99.90
8792;DHT22;4432;50.890;4.744;2023-07-02T04:08:41;15.30;99.90
8792;DHT22;4432;50.890;4.744;2023-07-02T04:11:07;15.20;99.90
8792;DHT22;4432;50.890;4.744;2023-07-02T04:13:32;15.20;99.90
8792;DHT22;4432;50.890;4.744;2023-07-02T04:15:58;15.30;99.90
8792;DHT22;4432;50.890;4.744;2023-07-02T04:18:24;15.30;99.90
8792;DHT22;4432;50.890;4.744;2023-07-02T04:20:50;15.30;99.90
8792;DHT22;4432;50.890;4.744;2023-07-02T04:23:15;15.40;99.90
8792;DHT22;4432;50.890;4.744;2023-07-02T04:25:41;15.40;99.90
8792;DHT22;4432;50.890;4.744;2023-07-02T04:28:07;15.40;99.90
8792;DHT22;4432;50.890;4.744;2023-07-02T04:30:33;15.50;99.90
8792;DHT22;4432;50.890;4.744;2023-07-02T04:33:00;15.50;99.90
8792;DHT22;4432;50.890;4.744;2023-07-02T04:35:26;15.60;99.90
8792;DHT22;4432;50.890;4.744;2023-07-02T04:37:51;15.60;99.90
8792;DHT22;4432;50.890;4.744;2023-07-02T04:40:17;15.70;99.90
8792;DHT22;4432;50.890;4.744;2023-07-02T04:42:43;15.70;99.90
8792;DHT22;4432;50.890;4.744;2023-07-02T04:45:21;15.70;99.90
8792;DHT22;4432;50.890;4.744;2023-07-02T04:47:46;15.70;99.90
8792;DHT22;4432;50.890;4.744;2023-07-02T04:50:12;15.80;99.90
8792;DHT22;4432;50.890;4.744;2023-07-02T04:52:38;15.90;99.90
8792;DHT22;4432;50.890;4.744;2023-07-02T04:55:05;16.00;99.90
8792;DHT22;4432;50.890;4.744;2023-07-02T04:57:31;16.10;99.90
8792;DHT22;4432;50.890;4.744;2023-07-02T04:59:57;16.10;99.90
8792;DHT22;4432;50.890;4.744;2023-07-02T05:02:22;16.00;99.90
8792;DHT22;4432;50.890;4.744;2023-07-02T05:04:48;16.10;99.90
8792;DHT22;4432;50.890;4.744;2023-07-02T05:07:15;16.20;99.90
8792;DHT22;4432;50.890;4.744;2023-07-02T05:09:41;16.30;99.90
8792;DHT22;4432;50.890;4.744;2023-07-02T05:12:07;16.30;99.90
8792;DHT22;4432;50.890;4.744;2023-07-02T05:14:33;16.40;99.90
8792;DHT22;4432;50.890;4.744;2023-07-02T05:16:59;16.50;99.90
8792;DHT22;4432;50.890;4.744;2023-07-02T05:19:24;16.60;99.90
8792;DHT22;4432;50.890;4.744;2023-07-02T05:21:50;16.80;99.90
8792;DHT22;4432;50.890;4.744;2023-07-02T05:24:16;16.90;99.90
8792;DHT22;4432;50.890;4.744;2023-07-02T05:26:41;16.80;99.90
8792;DHT22;4432;50.890;4.744;2023-07-02T05:29:07;16.80;99.90
8792;DHT22;4432;50.890;4.744;2023-07-02T05:31:33;16.90;99.90
8792;DHT22;4432;50.890;4.744;2023-07-02T05:33:59;16.70;99.90
8792;DHT22;4432;50.890;4.744;2023-07-02T05:36:25;16.70;99.90
8792;DHT22;4432;50.890;4.744;2023-07-02T05:38:51;17.00;99.90
8792;DHT22;4432;50.890;4.744;2023-07-02T05:41:20;17.20;99.90
8792;DHT22;4432;50.890;4.744;2023-07-02T05:43:46;17.30;99.90
8792;DHT22;4432;50.890;4.744;2023-07-02T05:46:12;17.40;99.90
8792;DHT22;4432;50.890;4.744;2023-07-02T05:48:40;17.40;99.90
8792;DHT22;4432;50.890;4.744;2023-07-02T05:51:06;17.20;99.90
8792;DHT22;4432;50.890;4.744;2023-07-02T05:53:32;17.30;99.90
8792;DHT22;4432;50.890;4.744;2023-07-02T05:55:57;17.40;99.90
8792;DHT22;4432;50.890;4.744;2023-07-02T05:58:23;17.40;99.90
8792;DHT22;4432;50.890;4.744;2023-07-02T06:00:48;17.50;99.90
8792;DHT22;4432;50.890;4.744;2023-07-02T06:03:20;17.60;99.90
8792;DHT22;4432;50.890;4.744;2023-07-02T06:05:47;17.60;99.90
8792;DHT22;4432;50.890;4.744;2023-07-02T06:08:18;17.60;99.90
8792;DHT22;4432;50.890;4.744;2023-07-02T06:10:46;17.60;99.90
8792;DHT22;4432;50.890;4.744;2023-07-02T06:13:12;17.80;99.90
8792;DHT22;4432;50.890;4.744;2023-07-02T06:15:38;17.90;99.90
8792;DHT22;4432;50.890;4.744;2023-07-02T06:18:04;17.90;99.90
8792;DHT22;4432;50.890;4.744;2023-07-02T06:20:30;18.00;99.90
8792;DHT22;4432;50.890;4.744;2023-07-02T06:22:56;18.10;99.90
8792;DHT22;4432;50.890;4.744;2023-07-02T06:25:21;18.10;99.90
8792;DHT22;4432;50.890;4.744;2023-07-02T06:27:47;18.30;99.90
8792;DHT22;4432;50.890;4.744;2023-07-02T06:30:13;18.30;99.90
8792;DHT22;4432;50.890;4.744;2023-07-02T06:32:39;18.10;99.90
8792;DHT22;4432;50.890;4.744;2023-07-02T06:35:05;18.30;99.90
8792;DHT22;4432;50.890;4.744;2023-07-02T06:37:34;18.50;99.90
8792;DHT22;4432;50.890;4.744;2023-07-02T06:40:00;18.30;99.90
8792;DHT22;4432;50.890;4.744;2023-07-02T06:42:25;18.30;99.90
8792;DHT22;4432;50.890;4.744;2023-07-02T06:44:51;18.70;99.90
8792;DHT22;4432;50.890;4.744;2023-07-02T06:47:17;18.90;99.90
8792;DHT22;4432;50.890;4.744;2023-07-02T06:49:43;18.80;99.90
8792;DHT22;4432;50.890;4.744;2023-07-02T06:52:09;19.00;99.90
8792;DHT22;4432;50.890;4.744;2023-07-02T06:54:35;18.80;99.90
8792;DHT22;4432;50.890;4.744;2023-07-02T06:57:01;18.70;99.90
8792;DHT22;4432;50.890;4.744;2023-07-02T06:59:27;18.70;99.90
8792;DHT22;4432;50.890;4.744;2023-07-02T07:01:52;18.90;99.90
8792;DHT22;4432;50.890;4.744;2023-07-02T07:04:18;19.00;99.90
8792;DHT22;4432;50.890;4.744;2023-07-02T07:06:44;18.90;99.90
8792;DHT22;4432;50.890;4.744;2023-07-02T07:09:10;19.20;99.90
8792;DHT22;4432;50.890;4.744;2023-07-02T07:11:35;19.10;99.90
8792;DHT22;4432;50.890;4.744;2023-07-02T07:14:01;19.20;99.90
8792;DHT22;4432;50.890;4.744;2023-07-02T07:16:27;19.40;99.90
8792;DHT22;4432;50.890;4.744;2023-07-02T07:18:53;19.40;99.90
8792;DHT22;4432;50.890;4.744;2023-07-02T07:21:18;19.40;99.90
8792;DHT22;4432;50.890;4.744;2023-07-02T07:23:44;19.70;99.90
8792;DHT22;4432;50.890;4.744;2023-07-02T07:26:10;20.00;99.90
8792;DHT22;4432;50.890;4.744;2023-07-02T07:28:36;19.90;99.90
8792;DHT22;4432;50.890;4.744;2023-07-02T07:31:02;19.70;99.90
8792;DHT22;4432;50.890;4.744;2023-07-02T07:33:28;19.90;99.90
8792;DHT22;4432;50.890;4.744;2023-07-02T07:35:54;20.10;99.90
8792;DHT22;4432;50.890;4.744;2023-07-02T07:38:20;20.10;99.90
8792;DHT22;4432;50.890;4.744;2023-07-02T07:40:46;20.30;99.90
8792;DHT22;4432;50.890;4.744;2023-07-02T07:43:11;20.30;99.90
8792;DHT22;4432;50.890;4.744;2023-07-02T07:45:37;20.40;99.90
8792;DHT22;4432;50.890;4.744;2023-07-02T07:48:05;20.30;99.90
8792;DHT22;4432;50.890;4.744;2023-07-02T07:50:31;20.60;99.90
8792;DHT22;4432;50.890;4.744;2023-07-02T07:52:57;20.50;99.90
8792;DHT22;4432;50.890;4.744;2023-07-02T07:55:23;20.40;99.90
8792;DHT22;4432;50.890;4.744;2023-07-02T07:57:49;20.80;99.90
8792;DHT22;4432;50.890;4.744;2023-07-02T08:00:15;21.00;99.90
8792;DHT22;4432;50.890;4.744;2023-07-02T08:02:43;21.10;99.90
8792;DHT22;4432;50.890;4.744;2023-07-02T08:05:09;21.30;99.90
8792;DHT22;4432;50.890;4.744;2023-07-02T08:07:35;21.20;99.90
8792;DHT22;4432;50.890;4.744;2023-07-02T08:10:00;21.10;99.90
8792;DHT22;4432;50.890;4.744;2023-07-02T08:12:28;21.00;99.90
8792;DHT22;4432;50.890;4.744;2023-07-02T08:14:55;21.20;99.90
8792;DHT22;4432;50.890;4.744;2023-07-02T08:17:21;20.90;99.90
8792;DHT22;4432;50.890;4.744;2023-07-02T08:19:46;20.70;99.90
8792;DHT22;4432;50.890;4.744;2023-07-02T08:22:13;20.80;99.90
8792;DHT22;4432;50.890;4.744;2023-07-02T08:24:39;20.90;99.90
8792;DHT22;4432;50.890;4.744;2023-07-02T08:27:05;20.90;99.90
8792;DHT22;4432;50.890;4.744;2023-07-02T08:29:31;21.20;99.90
8792;DHT22;4432;50.890;4.744;2023-07-02T08:31:57;21.20;99.90
8792;DHT22;4432;50.890;4.744;2023-07-02T08:34:23;21.60;99.90
8792;DHT22;4432;50.890;4.744;2023-07-02T08:36:48;21.50;99.90
8792;DHT22;4432;50.890;4.744;2023-07-02T08:39:15;21.60;99.90
8792;DHT22;4432;50.890;4.744;2023-07-02T08:41:44;21.70;99.90
8792;DHT22;4432;50.890;4.744;2023-07-02T08:44:11;21.60;99.90
8792;DHT22;4432;50.890;4.744;2023-07-02T08:46:39;21.80;99.90
8792;DHT22;4432;50.890;4.744;2023-07-02T08:49:06;21.80;99.90
8792;DHT22;4432;50.890;4.744;2023-07-02T08:51:32;22.00;99.80
8792;DHT22;4432;50.890;4.744;2023-07-02T08:53:58;21.90;98.00
8792;DHT22;4432;50.890;4.744;2023-07-02T08:56:24;22.00;99.90
8792;DHT22;4432;50.890;4.744;2023-07-02T08:58:52;22.10;99.60
8792;DHT22;4432;50.890;4.744;2023-07-02T09:01:17;22.20;99.40
8792;DHT22;4432;50.890;4.744;2023-07-02T09:03:43;22.10;99.90
8792;DHT22;4432;50.890;4.744;2023-07-02T09:06:10;22.50;99.90
8792;DHT22;4432;50.890;4.744;2023-07-02T09:08:36;22.50;97.40
8792;DHT22;4432;50.890;4.744;2023-07-02T09:11:13;22.10;99.10
8792;DHT22;4432;50.890;4.744;2023-07-02T09:16:20;21.40;99.70
8792;DHT22;4432;50.890;4.744;2023-07-02T09:18:58;21.00;99.90
8792;DHT22;4432;50.890;4.744;2023-07-02T09:21:37;20.70;99.90
8792;DHT22;4432;50.890;4.744;2023-07-02T09:24:15;20.50;99.90
8792;DHT22;4432;50.890;4.744;2023-07-02T09:26:49;20.50;99.90
8792;DHT22;4432;50.890;4.744;2023-07-02T09:29:29;20.60;99.90
8792;DHT22;4432;50.890;4.744;2023-07-02T09:31:59;20.90;99.90
8792;DHT22;4432;50.890;4.744;2023-07-02T09:34:32;21.10;99.90
8792;DHT22;4432;50.890;4.744;2023-07-02T09:37:00;21.40;99.90
8792;DHT22;4432;50.890;4.744;2023-07-02T09:39:31;20.90;99.90
8792;DHT22;4432;50.890;4.744;2023-07-02T09:41:58;21.00;99.90
8792;DHT22;4432;50.890;4.744;2023-07-02T09:44:32;21.00;99.90
8792;DHT22;4432;50.890;4.744;2023-07-02T09:47:04;21.00;99.90
8792;DHT22;4432;50.890;4.744;2023-07-02T09:49:34;21.00;99.90
8792;DHT22;4432;50.890;4.744;2023-07-02T09:52:03;21.50;99.90
8792;DHT22;4432;50.890;4.744;2023-07-02T09:54:29;21.40;99.90
8792;DHT22;4432;50.890;4.744;2023-07-02T09:56:56;21.60;99.90
8792;DHT22;4432;50.890;4.744;2023-07-02T09:59:23;21.60;99.90
8792;DHT22;4432;50.890;4.744;2023-07-02T10:01:50;22.00;99.90
8792;DHT22;4432;50.890;4.744;2023-07-02T10:04:19;22.30;99.90
8792;DHT22;4432;50.890;4.744;2023-07-02T10:06:50;22.20;99.90
8792;DHT22;4432;50.890;4.744;2023-07-02T10:09:17;22.00;99.90
8792;DHT22;4432;50.890;4.744;2023-07-02T10:11:43;21.60;99.90
8792;DHT22;4432;50.890;4.744;2023-07-02T10:14:09;21.40;99.90
8792;DHT22;4432;50.890;4.744;2023-07-02T10:16:48;21.00;99.90
8792;DHT22;4432;50.890;4.744;2023-07-02T10:19:14;21.20;99.90
8792;DHT22;4432;50.890;4.744;2023-07-02T10:21:40;21.50;99.90
8792;DHT22;4432;50.890;4.744;2023-07-02T10:24:13;21.80;99.90
8792;DHT22;4432;50.890;4.744;2023-07-02T10:26:54;21.90;99.90
8792;DHT22;4432;50.890;4.744;2023-07-02T10:29:22;21.80;99.90
8792;DHT22;4432;50.890;4.744;2023-07-02T10:31:50;21.60;99.90
8792;DHT22;4432;50.890;4.744;2023-07-02T10:34:16;21.30;99.90
8792;DHT22;4432;50.890;4.744;2023-07-02T10:36:42;20.70;99.90
8792;DHT22;4432;50.890;4.744;2023-07-02T10:39:07;20.60;99.90
8792;DHT22;4432;50.890;4.744;2023-07-02T10:41:34;20.40;99.90
8792;DHT22;4432;50.890;4.744;2023-07-02T10:44:10;20.40;99.90
8792;DHT22;4432;50.890;4.744;2023-07-02T10:46:46;20.60;99.90
8792;DHT22;4432;50.890;4.744;2023-07-02T10:49:12;21.10;99.90
8792;DHT22;4432;50.890;4.744;2023-07-02T10:51:38;21.70;99.90
8792;DHT22;4432;50.890;4.744;2023-07-02T10:54:04;22.30;99.90
8792;DHT22;4432;50.890;4.744;2023-07-02T10:56:31;23.00;99.90
8792;DHT22;4432;50.890;4.744;2023-07-02T10:58:57;23.00;99.90
8792;DHT22;4432;50.890;4.744;2023-07-02T11:01:30;22.60;99.90
8792;DHT22;4432;50.890;4.744;2023-07-02T11:04:01;22.30;99.00
8792;DHT22;4432;50.890;4.744;2023-07-02T11:06:28;21.80;99.90
8792;DHT22;4432;50.890;4.744;2023-07-02T11:08:54;21.60;99.90
8792;DHT22;4432;50.890;4.744;2023-07-02T11:11:21;21.40;99.90
8792;DHT22;4432;50.890;4.744;2023-07-02T11:13:51;21.20;99.90
8792;DHT22;4432;50.890;4.744;2023-07-02T11:16:28;20.80;99.90
8792;DHT22;4432;50.890;4.744;2023-07-02T11:19:06;20.60;99.90
8792;DHT22;4432;50.890;4.744;2023-07-02T11:21:36;20.40;99.90
8792;DHT22;4432;50.890;4.744;2023-07-02T11:24:07;20.60;99.90
8792;DHT22;4432;50.890;4.744;2023-07-02T11:26:37;21.10;99.90
8792;DHT22;4432;50.890;4.744;2023-07-02T11:29:03;21.50;99.90
8792;DHT22;4432;50.890;4.744;2023-07-02T11:31:28;22.10;99.90
8792;DHT22;4432;50.890;4.744;2023-07-02T11:33:54;22.50;99.90
8792;DHT22;4432;50.890;4.744;2023-07-02T11:36:23;22.70;98.00
8792;DHT22;4432;50.890;4.744;2023-07-02T11:38:50;23.30;99.90
8792;DHT22;4432;50.890;4.744;2023-07-02T11:41:18;23.20;95.80
8792;DHT22;4432;50.890;4.744;2023-07-02T11:43:44;23.00;97.40
8792;DHT22;4432;50.890;4.744;2023-07-02T11:46:09;23.00;97.60
8792;DHT22;4432;50.890;4.744;2023-07-02T11:48:35;22.60;98.70
8792;DHT22;4432;50.890;4.744;2023-07-02T11:51:01;22.10;97.20
8792;DHT22;4432;50.890;4.744;2023-07-02T11:53:26;22.60;98.80
8792;DHT22;4432;50.890;4.744;2023-07-02T11:55:52;23.50;97.70
8792;DHT22;4432;50.890;4.744;2023-07-02T11:58:18;23.60;94.50
8792;DHT22;4432;50.890;4.744;2023-07-02T12:00:43;23.60;93.60
8792;DHT22;4432;50.890;4.744;2023-07-02T12:03:09;23.10;93.90
8792;DHT22;4432;50.890;4.744;2023-07-02T12:05:36;22.70;92.50
8792;DHT22;4432;50.890;4.744;2023-07-02T12:08:02;22.30;94.10
8792;DHT22;4432;50.890;4.744;2023-07-02T12:10:28;22.40;96.00
8792;DHT22;4432;50.890;4.744;2023-07-02T12:12:54;22.70;93.50
8792;DHT22;4432;50.890;4.744;2023-07-02T12:15:19;22.90;94.70
8792;DHT22;4432;50.890;4.744;2023-07-02T12:17:45;23.10;93.10
8792;DHT22;4432;50.890;4.744;2023-07-02T12:20:11;23.40;92.20
8792;DHT22;4432;50.890;4.744;2023-07-02T12:22:37;23.30;89.30
8792;DHT22;4432;50.890;4.744;2023-07-02T12:25:04;23.10;94.00
8792;DHT22;4432;50.890;4.744;2023-07-02T12:27:30;23.30;89.60
8792;DHT22;4432;50.890;4.744;2023-07-02T12:29:56;23.40;90.10
8792;DHT22;4432;50.890;4.744;2023-07-02T12:32:22;23.20;91.60
8792;DHT22;4432;50.890;4.744;2023-07-02T12:34:47;23.50;93.80
8792;DHT22;4432;50.890;4.744;2023-07-02T12:37:13;24.10;90.80
8792;DHT22;4432;50.890;4.744;2023-07-02T12:39:42;24.30;92.00
8792;DHT22;4432;50.890;4.744;2023-07-02T12:42:08;24.10;87.20
8792;DHT22;4432;50.890;4.744;2023-07-02T12:44:34;24.00;83.40
8792;DHT22;4432;50.890;4.744;2023-07-02T12:47:00;23.70;84.10
8792;DHT22;4432;50.890;4.744;2023-07-02T12:49:26;23.50;86.40
8792;DHT22;4432;50.890;4.744;2023-07-02T12:51:51;23.30;85.00
8792;DHT22;4432;50.890;4.744;2023-07-02T12:54:17;23.30;86.20
8792;DHT22;4432;50.890;4.744;2023-07-02T12:56:43;23.10;86.00
8792;DHT22;4432;50.890;4.744;2023-07-02T12:59:08;23.00;86.40
8792;DHT22;4432;50.890;4.744;2023-07-02T13:01:34;23.00;85.20
8792;DHT22;4432;50.890;4.744;2023-07-02T13:04:00;23.30;87.30
8792;DHT22;4432;50.890;4.744;2023-07-02T13:06:27;23.60;85.40
8792;DHT22;4432;50.890;4.744;2023-07-02T13:08:53;23.70;81.10
8792;DHT22;4432;50.890;4.744;2023-07-02T13:11:21;23.50;80.20
8792;DHT22;4432;50.890;4.744;2023-07-02T13:13:47;23.20;82.20
8792;DHT22;4432;50.890;4.744;2023-07-02T13:16:13;23.30;81.40
8792;DHT22;4432;50.890;4.744;2023-07-02T13:18:38;23.40;81.90
8792;DHT22;4432;50.890;4.744;2023-07-02T13:21:04;23.60;82.60
8792;DHT22;4432;50.890;4.744;2023-07-02T13:23:30;23.80;84.20
8792;DHT22;4432;50.890;4.744;2023-07-02T13:25:56;24.00;79.80
8792;DHT22;4432;50.890;4.744;2023-07-02T13:28:21;23.80;79.70
8792;DHT22;4432;50.890;4.744;2023-07-02T13:30:47;23.80;82.80
8792;DHT22;4432;50.890;4.744;2023-07-02T13:33:13;23.90;80.60
8792;DHT22;4432;50.890;4.744;2023-07-02T13:35:39;23.60;77.90
8792;DHT22;4432;50.890;4.744;2023-07-02T13:38:04;23.30;82.50
8792;DHT22;4432;50.890;4.744;2023-07-02T13:40:30;23.80;81.50
8792;DHT22;4432;50.890;4.744;2023-07-02T13:42:56;23.80;77.40
8792;DHT22;4432;50.890;4.744;2023-07-02T13:45:22;23.80;73.70
8792;DHT22;4432;50.890;4.744;2023-07-02T13:47:47;23.70;81.10
8792;DHT22;4432;50.890;4.744;2023-07-02T13:50:13;23.20;78.70
8792;DHT22;4432;50.890;4.744;2023-07-02T13:52:39;23.10;87.10
8792;DHT22;4432;50.890;4.744;2023-07-02T13:55:05;23.30;76.80
8792;DHT22;4432;50.890;4.744;2023-07-02T13:57:31;23.50;77.30
8792;DHT22;4432;50.890;4.744;2023-07-02T13:59:57;23.60;75.40
8792;DHT22;4432;50.890;4.744;2023-07-02T14:02:23;23.50;75.60
8792;DHT22;4432;50.890;4.744;2023-07-02T14:04:49;23.70;75.70
8792;DHT22;4432;50.890;4.744;2023-07-02T14:07:15;23.60;72.00
8792;DHT22;4432;50.890;4.744;2023-07-02T14:09:41;23.50;74.50
8792;DHT22;4432;50.890;4.744;2023-07-02T14:12:07;23.30;74.40
8792;DHT22;4432;50.890;4.744;2023-07-02T14:14:33;23.10;81.60
8792;DHT22;4432;50.890;4.744;2023-07-02T14:16:58;23.60;79.90
8792;DHT22;4432;50.890;4.744;2023-07-02T14:19:24;23.70;75.30
8792;DHT22;4432;50.890;4.744;2023-07-02T14:21:50;23.50;75.80
8792;DHT22;4432;50.890;4.744;2023-07-02T14:24:15;23.80;79.20
8792;DHT22;4432;50.890;4.744;2023-07-02T14:26:41;24.20;75.00
8792;DHT22;4432;50.890;4.744;2023-07-02T14:29:09;24.20;74.40
8792;DHT22;4432;50.890;4.744;2023-07-02T14:31:34;23.90;73.60
8792;DHT22;4432;50.890;4.744;2023-07-02T14:34:00;23.60;72.70
8792;DHT22;4432;50.890;4.744;2023-07-02T14:36:26;24.00;72.70
8792;DHT22;4432;50.890;4.744;2023-07-02T14:38:52;23.90;79.60
8792;DHT22;4432;50.890;4.744;2023-07-02T14:41:17;24.10;82.70
8792;DHT22;4432;50.890;4.744;2023-07-02T14:43:43;24.50;76.90
8792;DHT22;4432;50.890;4.744;2023-07-02T14:46:09;24.70;75.30
8792;DHT22;4432;50.890;4.744;2023-07-02T14:48:35;24.30;74.60
8792;DHT22;4432;50.890;4.744;2023-07-02T14:51:01;23.80;72.90
8792;DHT22;4432;50.890;4.744;2023-07-02T14:53:29;23.60;68.20
8792;DHT22;4432;50.890;4.744;2023-07-02T14:55:58;23.60;76.50
8792;DHT22;4432;50.890;4.744;2023-07-02T14:58:25;23.50;75.60
8792;DHT22;4432;50.890;4.744;2023-07-02T15:00:53;23.60;72.30
8792;DHT22;4432;50.890;4.744;2023-07-02T15:03:20;23.80;75.50
8792;DHT22;4432;50.890;4.744;2023-07-02T15:05:49;24.10;78.00
8792;DHT22;4432;50.890;4.744;2023-07-02T15:08:15;24.20;68.00
8792;DHT22;4432;50.890;4.744;2023-07-02T15:10:50;24.20;75.50
8792;DHT22;4432;50.890;4.744;2023-07-02T15:13:16;24.50;76.10
8792;DHT22;4432;50.890;4.744;2023-07-02T15:15:44;24.30;77.20
8792;DHT22;4432;50.890;4.744;2023-07-02T15:18:10;24.40;74.80
8792;DHT22;4432;50.890;4.744;2023-07-02T15:20:36;24.30;71.40
8792;DHT22;4432;50.890;4.744;2023-07-02T15:23:02;23.80;76.10
8792;DHT22;4432;50.890;4.744;2023-07-02T15:25:29;23.50;70.80
8792;DHT22;4432;50.890;4.744;2023-07-02T15:27:55;23.60;73.20
8792;DHT22;4432;50.890;4.744;2023-07-02T15:30:21;23.80;77.40
8792;DHT22;4432;50.890;4.744;2023-07-02T15:32:47;23.70;74.40
8792;DHT22;4432;50.890;4.744;2023-07-02T15:35:12;23.80;72.30
8792;DHT22;4432;50.890;4.744;2023-07-02T15:37:38;24.00;78.20
8792;DHT22;4432;50.890;4.744;2023-07-02T15:40:05;23.60;73.90
8792;DHT22;4432;50.890;4.744;2023-07-02T15:42:31;23.60;76.50
8792;DHT22;4432;50.890;4.744;2023-07-02T15:44:59;23.80;80.50
8792;DHT22;4432;50.890;4.744;2023-07-02T15:47:25;23.90;80.10
8792;DHT22;4432;50.890;4.744;2023-07-02T15:49:52;23.80;72.20
8792;DHT22;4432;50.890;4.744;2023-07-02T15:52:19;23.80;71.70
8792;DHT22;4432;50.890;4.744;2023-07-02T15:54:45;23.80;71.60
8792;DHT22;4432;50.890;4.744;2023-07-02T15:57:11;23.60;71.20
8792;DHT22;4432;50.890;4.744;2023-07-02T15:59:37;23.50;73.10
8792;DHT22;4432;50.890;4.744;2023-07-02T16:02:03;23.30;76.50